createdAt,value
2022-10-11T00:01:17.134Z,101260.63
2022-10-11T00:03:22.878Z,101447.66
2022-10-11T00:05:25.953Z,101445.38
2022-10-11T00:07:29.680Z,101312.69
2022-10-11T00:09:32.616Z,101437.72
2022-10-11T00:11:35.268Z,101402.03
2022-10-11T00:13:38.543Z,101385.31
2022-10-11T00:15:41.509Z,101472.25
2022-10-11T00:17:44.305Z,101316.66
2022-10-11T00:19:49.388Z,101490.38
2022-10-11T00:21:52.169Z,101444.59
2022-10-11T00:23:54.831Z,101360.44
2022-10-11T00:26:03.065Z,101497.50
2022-10-11T00:28:08.466Z,101358.47
2022-10-11T00:30:12.526Z,101368.22
2022-10-11T00:32:19.705Z,101371.41
2022-10-11T00:34:22.893Z,101425.53
2022-10-11T00:36:26.680Z,101361.56
2022-10-11T00:38:32.213Z,101409.41
2022-10-11T00:40:37.580Z,101527.38
2022-10-11T00:42:40.566Z,101419.28
2022-10-11T00:44:48.170Z,101505.97
2022-10-11T00:47:15.479Z,101396.06
2022-10-11T00:49:49.878Z,101537.19
2022-10-11T00:51:59.162Z,101533.41
2022-10-11T00:54:02.819Z,101435.13
2022-10-11T00:56:15.551Z,101488.91
2022-10-11T00:58:19.626Z,101550.53
2022-10-11T01:00:22.255Z,101544.06
2022-10-11T01:02:27.159Z,101520.91
2022-10-11T01:04:29.807Z,101476.75
2022-10-11T01:06:35.179Z,101558.47
2022-10-11T01:08:41.273Z,101462.78
2022-10-11T01:10:44.574Z,101445.97
2022-10-11T01:13:12.594Z,101551.81
2022-10-11T01:15:48.159Z,101551.88
2022-10-11T01:18:09.486Z,101562.88
2022-10-11T01:20:37.236Z,101540.41
2022-10-11T01:23:10.598Z,101573.78
2022-10-11T01:25:36.719Z,101551.44
2022-10-11T01:27:54.345Z,101577.84
2022-10-11T01:30:19.415Z,101553.63
2022-10-11T01:32:32.039Z,101471.78
2022-10-11T01:34:58.897Z,101564.44
2022-10-11T01:37:12.772Z,101573.78
2022-10-11T01:39:24.793Z,101582.56
2022-10-11T01:41:44.175Z,101504.53
2022-10-11T01:43:48.586Z,101545.06
2022-10-11T01:45:55.059Z,101608.41
2022-10-11T01:48:13.179Z,101576.38
2022-10-11T01:50:39.700Z,101609.09
2022-10-11T01:52:44.985Z,101607.31
2022-10-11T01:55:15.758Z,101602.91
2022-10-11T01:57:47.064Z,101571.31
2022-10-11T02:00:18.872Z,101569.59
2022-10-11T02:03:06.049Z,101545.09
2022-10-11T02:05:27.202Z,101615.91
2022-10-11T02:08:05.759Z,101617.78
2022-10-11T02:10:28.018Z,101544.44
2022-10-11T02:12:42.410Z,101573.47
2022-10-11T02:14:51.038Z,101609.97
2022-10-11T02:17:04.398Z,101613.44
2022-10-11T02:19:08.310Z,101568.28
2022-10-11T02:21:22.072Z,101565.47
2022-10-11T02:23:31.270Z,101625.97
2022-10-11T02:25:45.058Z,101611.31
2022-10-11T02:27:48.974Z,101527.63
2022-10-11T02:29:54.310Z,101594.59
2022-10-11T02:32:00.563Z,101608.31
2022-10-11T02:34:23.577Z,101630.50
2022-10-11T02:37:19.182Z,101645.47
2022-10-11T02:39:42.999Z,101642.25
2022-10-11T02:41:47.540Z,101639.81
2022-10-11T02:43:59.730Z,101612.16
2022-10-11T02:46:04.375Z,101632.75
2022-10-11T02:48:08.811Z,101644.66
2022-10-11T02:50:14.348Z,101624.53
2022-10-11T02:52:30.158Z,101529.88
2022-10-11T02:54:33.305Z,101652.59
2022-10-11T02:56:35.921Z,101649.34
2022-10-11T02:58:38.543Z,101614.84
2022-10-11T03:00:41.148Z,101634.84
2022-10-11T03:02:43.738Z,101610.41
2022-10-11T03:04:46.409Z,101601.91
2022-10-11T03:06:49.009Z,101611.41
2022-10-11T03:08:51.545Z,101631.22
2022-10-11T03:10:54.291Z,101635.66
2022-10-11T03:12:56.912Z,101679.03
2022-10-11T03:14:59.437Z,101670.97
2022-10-11T03:17:23.823Z,101634.22
2022-10-11T03:19:24.692Z,101645.72
2022-10-11T03:21:27.318Z,101658.88
2022-10-11T03:23:29.913Z,101631.00
2022-10-11T03:25:32.492Z,101683.91
2022-10-11T03:27:35.524Z,101681.50
2022-10-11T03:29:38.136Z,101574.06
2022-10-11T03:31:40.798Z,101559.13
2022-10-11T03:33:43.435Z,101553.50
2022-10-11T03:35:48.071Z,101546.22
2022-10-11T03:37:51.634Z,101526.03
2022-10-11T03:39:54.378Z,101659.84
2022-10-11T03:41:57.043Z,101689.53
2022-10-11T03:43:59.644Z,101711.56
2022-10-11T03:46:02.511Z,101703.25
2022-10-11T03:48:05.945Z,101718.59
2022-10-11T03:50:09.667Z,101563.53
2022-10-11T03:52:12.341Z,101693.34
2022-10-11T03:54:14.920Z,101593.78
2022-10-11T03:56:17.401Z,101678.19
2022-10-11T03:58:20.227Z,101717.78
2022-10-11T04:00:22.842Z,101719.16
2022-10-11T04:02:25.592Z,101713.72
2022-10-11T04:04:28.364Z,101722.19
2022-10-11T04:06:31.322Z,101731.44
2022-10-11T04:08:33.984Z,101716.50
2022-10-11T04:10:36.690Z,101637.28
2022-10-11T04:12:39.326Z,101744.19
2022-10-11T04:14:41.928Z,101714.88
2022-10-11T04:16:44.721Z,101646.19
2022-10-11T04:18:47.781Z,101579.53
2022-10-11T04:20:50.398Z,101721.34
2022-10-11T04:22:53.018Z,101706.78
2022-10-11T04:24:58.181Z,101740.75
2022-10-11T04:27:00.819Z,101599.53
2022-10-11T04:29:05.224Z,101500.75
2022-10-11T04:31:08.092Z,101678.91
2022-10-11T04:33:11.677Z,101706.34
2022-10-11T04:35:14.479Z,101736.25
2022-10-11T04:37:20.287Z,101758.47
2022-10-11T04:39:23.022Z,101635.41
2022-10-11T04:41:25.670Z,101676.19
2022-10-11T04:43:28.253Z,101750.19
2022-10-11T04:45:30.924Z,101738.66
2022-10-11T04:47:33.639Z,101623.06
2022-10-11T04:49:36.531Z,101683.28
2022-10-11T04:51:39.181Z,101646.50
2022-10-11T04:53:41.828Z,101742.44
2022-10-11T04:55:44.546Z,101783.03
2022-10-11T04:57:47.793Z,101791.50
2022-10-11T04:59:50.547Z,101756.72
2022-10-11T05:01:53.598Z,101731.44
2022-10-11T05:03:56.312Z,101622.91
2022-10-11T05:06:07.109Z,101785.03
2022-10-11T05:08:09.990Z,101710.22
2022-10-11T05:10:12.790Z,101793.88
2022-10-11T05:12:15.512Z,101767.59
2022-10-11T05:14:18.354Z,101801.53
2022-10-11T05:16:21.391Z,101804.53
2022-10-11T05:18:52.669Z,101770.78
2022-10-11T05:21:15.935Z,101788.09
2022-10-11T05:23:19.652Z,101762.00
2022-10-11T05:25:22.241Z,101800.03
2022-10-11T05:27:24.835Z,101792.13
2022-10-11T05:29:31.131Z,101785.63
2022-10-11T05:31:33.943Z,101743.97
2022-10-11T05:33:36.964Z,101823.63
2022-10-11T05:35:39.727Z,101819.53
2022-10-11T05:37:42.434Z,101667.41
2022-10-11T05:40:13.079Z,101830.88
2022-10-11T05:42:15.835Z,101837.13
2022-10-11T05:44:18.893Z,101810.22
2022-10-11T05:46:32.407Z,101842.22
2022-10-11T05:48:34.953Z,101791.88
2022-10-11T05:50:41.055Z,101649.59
2022-10-11T05:52:43.682Z,101836.66
2022-10-11T05:54:46.452Z,101852.84
2022-10-11T05:56:49.040Z,101852.47
2022-10-11T05:58:52.612Z,101747.28
2022-10-11T06:00:57.041Z,101806.75
2022-10-11T06:03:00.023Z,101788.56
2022-10-11T06:05:02.727Z,101745.47
2022-10-11T06:07:07.855Z,101869.25
2022-10-11T06:09:10.464Z,101856.94
2022-10-11T06:11:20.031Z,101870.47
2022-10-11T06:13:22.667Z,101877.34
2022-10-11T06:15:25.536Z,101824.13
2022-10-11T06:17:28.339Z,101724.63
2022-10-11T06:19:51.601Z,101862.22
2022-10-11T06:21:58.123Z,101872.69
2022-10-11T06:24:01.928Z,101788.56
2022-10-11T06:26:30.179Z,101897.00
2022-10-11T06:28:35.015Z,101874.38
2022-10-11T06:30:38.990Z,101847.66
2022-10-11T06:32:41.617Z,101854.13
2022-10-11T06:34:44.224Z,101698.44
2022-10-11T06:36:46.933Z,101889.34
2022-10-11T06:38:55.463Z,101883.69
2022-10-11T06:41:33.316Z,101778.50
2022-10-11T06:43:35.956Z,101886.09
2022-10-11T06:45:38.509Z,101911.03
2022-10-11T06:47:41.322Z,101806.47
2022-10-11T06:49:43.864Z,101897.16
2022-10-11T06:51:46.504Z,101888.63
2022-10-11T06:53:52.114Z,101854.22
2022-10-11T06:55:55.691Z,101932.53
2022-10-11T06:57:58.407Z,101924.66
2022-10-11T07:00:00.934Z,101872.03
2022-10-11T07:02:05.782Z,101888.28
2022-10-11T07:04:20.781Z,101775.22
2022-10-11T07:06:46.984Z,101735.63
2022-10-11T07:09:20.161Z,101955.06
2022-10-11T07:11:32.101Z,101929.59
2022-10-11T07:13:35.415Z,101944.56
2022-10-11T07:15:38.345Z,101906.97
2022-10-11T07:17:41.027Z,101916.06
2022-10-11T07:19:43.788Z,101912.63
2022-10-11T07:22:01.535Z,101956.50
2022-10-11T07:24:04.455Z,101920.31
2022-10-11T07:26:13.429Z,101914.63
2022-10-11T07:28:18.475Z,101961.94
2022-10-11T07:30:34.181Z,101948.81
2022-10-11T07:32:37.517Z,101892.78
2022-10-11T07:34:40.732Z,101953.88
2022-10-11T07:36:49.712Z,101943.53
2022-10-11T07:38:52.779Z,101934.44
2022-10-11T07:40:55.401Z,101946.97
2022-10-11T07:42:58.563Z,101970.41
2022-10-11T07:45:01.745Z,101849.53
2022-10-11T07:47:08.921Z,101955.44
2022-10-11T07:49:14.722Z,101959.88
2022-10-11T07:52:12.895Z,101980.09
2022-10-11T07:54:22.595Z,101974.81
2022-10-11T07:56:54.709Z,101914.72
2022-10-11T07:59:05.428Z,101975.56
2022-10-11T08:01:10.535Z,101980.22
2022-10-11T08:03:14.079Z,101975.94
2022-10-11T08:05:16.924Z,101981.97
2022-10-11T08:07:19.538Z,101986.63
2022-10-11T08:09:30.284Z,101898.72
2022-10-11T08:11:36.938Z,101974.63
2022-10-11T08:13:39.528Z,101956.81
2022-10-11T08:15:45.813Z,101972.56
2022-10-11T08:17:48.367Z,101965.84
2022-10-11T08:19:51.941Z,101987.44
2022-10-11T08:21:54.473Z,101930.25
2022-10-11T08:23:57.069Z,101979.09
2022-10-11T08:25:59.625Z,101967.56
2022-10-11T08:28:02.173Z,101985.31
2022-10-11T08:30:05.803Z,101996.38
2022-10-11T08:32:11.948Z,101980.81
2022-10-11T08:34:14.546Z,101993.63
2022-10-11T08:36:17.081Z,101958.69
2022-10-11T08:38:21.452Z,101982.06
2022-10-11T08:40:27.341Z,101981.78
2022-10-11T08:42:40.120Z,101943.03
2022-10-11T08:45:10.604Z,101957.88
2022-10-11T08:47:31.051Z,101988.34
2022-10-11T08:49:34.489Z,102003.06
2022-10-11T08:51:47.550Z,101983.22
2022-10-11T08:54:50.215Z,101876.97
2022-10-11T08:56:55.672Z,101853.69
2022-10-11T08:59:25.362Z,102011.91
2022-10-11T09:01:31.289Z,101984.16
2022-10-11T09:03:43.257Z,102014.06
2022-10-11T09:06:12.509Z,102016.63
2022-10-11T09:08:53.942Z,102000.53
2022-10-11T09:11:19.471Z,102016.72
2022-10-11T09:17:14.626Z,102006.16
2022-10-11T09:19:47.546Z,102017.19
2022-10-11T09:22:39.247Z,102020.19
2022-10-11T09:25:15.538Z,102017.91
2022-10-11T09:27:50.222Z,101988.91
2022-10-11T09:30:06.859Z,102029.94
2022-10-11T09:32:17.516Z,101975.91
2022-10-11T09:34:25.230Z,102021.00
2022-10-11T09:37:03.958Z,102022.63
2022-10-11T09:39:32.085Z,102014.94
2022-10-11T09:41:47.935Z,101974.88
2022-10-11T09:44:22.463Z,102018.13
2022-10-11T09:46:45.002Z,102006.03
2022-10-11T09:48:48.133Z,102000.06
2022-10-11T09:50:51.859Z,102027.25
2022-10-11T09:52:59.825Z,101984.28
2022-10-11T09:55:04.829Z,102018.59
2022-10-11T09:57:24.125Z,102013.69
2022-10-11T09:59:34.610Z,102019.38
2022-10-11T10:01:37.326Z,101989.19
2022-10-11T10:03:44.315Z,102014.34
2022-10-11T10:06:05.202Z,102014.09
2022-10-11T10:08:10.644Z,102023.22
2022-10-11T10:10:41.544Z,102022.22
2022-10-11T10:12:53.394Z,101973.47
2022-10-11T10:15:07.688Z,102005.31
2022-10-11T10:17:18.254Z,101997.38
2022-10-11T10:19:25.626Z,102014.53
2022-10-11T10:21:35.572Z,101991.97
2022-10-11T10:23:38.419Z,102016.97
2022-10-11T10:25:43.683Z,101955.25
2022-10-11T10:27:58.571Z,102024.00
2022-10-11T10:30:10.005Z,102024.22
2022-10-11T10:32:23.495Z,102010.38
2022-10-11T10:34:34.339Z,101985.94
2022-10-11T10:36:43.465Z,102018.28
2022-10-11T10:38:59.742Z,102029.63
2022-10-11T10:41:14.897Z,102012.50
2022-10-11T10:43:27.987Z,102012.94
2022-10-11T10:45:50.076Z,102026.72
2022-10-11T10:48:26.027Z,101987.34
2022-10-11T10:50:52.842Z,101994.94
2022-10-11T10:53:16.597Z,102010.81
2022-10-11T10:55:24.945Z,102023.63
2022-10-11T10:58:03.176Z,102020.69
2022-10-11T11:00:15.321Z,101974.88
2022-10-11T11:02:40.675Z,102015.53
2022-10-11T11:05:12.846Z,101978.44
2022-10-11T11:07:17.872Z,102009.00
2022-10-11T11:09:44.625Z,102013.34
2022-10-11T11:12:21.717Z,102011.50
2022-10-11T11:14:47.765Z,102007.72
2022-10-11T11:17:24.724Z,102012.69
2022-10-11T11:19:41.142Z,102009.66
2022-10-11T11:22:00.098Z,101970.38
2022-10-11T11:24:35.393Z,102009.97
2022-10-11T11:27:02.182Z,102011.38
2022-10-11T11:29:28.171Z,102008.78
2022-10-11T11:32:00.457Z,102004.28
2022-10-11T11:34:38.591Z,101981.00
2022-10-11T11:36:56.993Z,102001.09
2022-10-11T11:39:04.010Z,101972.78
2022-10-11T11:41:21.456Z,101979.38
2022-10-11T11:43:39.477Z,102007.16
2022-10-11T11:45:49.292Z,102006.75
2022-10-11T11:48:28.027Z,102001.28
2022-10-11T11:50:40.220Z,102010.63
2022-10-11T11:52:52.178Z,101971.31
2022-10-11T11:55:11.293Z,102018.31
2022-10-11T11:58:08.167Z,102014.63
2022-10-11T12:00:24.310Z,101986.34
2022-10-11T12:03:02.269Z,102003.00
2022-10-11T12:05:08.708Z,101909.16
2022-10-11T12:07:17.129Z,102006.22
2022-10-11T12:09:22.850Z,101991.84
2022-10-11T12:12:05.641Z,101992.09
2022-10-11T12:14:34.342Z,102013.06
2022-10-11T12:17:16.290Z,102002.38
2022-10-11T12:19:20.763Z,102006.19
2022-10-11T12:21:41.612Z,101991.34
2022-10-11T12:23:57.042Z,102002.63
2022-10-11T12:26:32.691Z,101987.75
2022-10-11T12:28:39.488Z,102002.53
2022-10-11T12:30:47.066Z,101996.97
2022-10-11T12:32:51.609Z,102000.44
2022-10-11T12:35:31.675Z,101995.91
2022-10-11T12:37:37.102Z,101998.53
2022-10-11T12:39:55.469Z,101997.09
2022-10-11T12:42:27.292Z,102000.91
2022-10-11T12:45:12.981Z,101998.13
2022-10-11T12:48:00.945Z,101991.19
2022-10-11T12:50:41.033Z,101997.34
2022-10-11T12:53:25.915Z,102001.09
2022-10-11T12:56:12.214Z,101996.63
2022-10-11T12:58:38.805Z,102004.38
2022-10-11T13:00:41.647Z,101956.25
2022-10-11T13:02:45.115Z,101973.50
2022-10-11T13:04:47.754Z,102001.84
2022-10-11T13:06:54.903Z,101994.81
2022-10-11T13:09:22.675Z,101972.25
2022-10-11T13:11:32.111Z,101871.31
2022-10-11T13:14:01.706Z,101998.84
2022-10-11T13:16:20.379Z,101972.34
2022-10-11T13:18:26.047Z,102005.75
2022-10-11T13:20:37.569Z,101963.47
2022-10-11T13:22:44.289Z,101979.69
2022-10-11T13:24:46.972Z,101963.47
2022-10-11T13:26:52.318Z,101980.50
2022-10-11T13:29:01.045Z,101956.00
2022-10-11T13:31:05.475Z,101949.53
2022-10-11T13:33:27.762Z,101936.88
2022-10-11T13:35:38.186Z,101992.81
2022-10-11T13:37:47.074Z,101964.81
2022-10-11T13:39:52.827Z,101965.75
2022-10-11T13:41:57.043Z,101989.47
2022-10-11T13:44:00.662Z,101984.06
2022-10-11T13:46:07.028Z,101987.75
2022-10-11T13:48:15.722Z,101984.69
2022-10-11T13:50:33.738Z,101869.13
2022-10-11T13:52:36.731Z,101970.56
2022-10-11T13:55:03.709Z,101986.50
2022-10-11T13:57:06.407Z,101989.09
2022-10-11T13:59:21.939Z,101907.50
2022-10-11T14:01:38.631Z,101983.50
2022-10-11T14:03:49.971Z,101979.88
2022-10-11T14:06:00.254Z,101977.47
2022-10-11T14:08:23.009Z,101978.09
2022-10-11T14:10:26.370Z,101934.72
2022-10-11T14:12:37.168Z,101978.75
2022-10-11T14:14:42.731Z,101977.13
2022-10-11T14:16:59.508Z,101938.50
2022-10-11T14:19:09.980Z,101983.09
2022-10-11T14:21:31.081Z,101937.16
2022-10-11T14:23:34.594Z,101880.09
2022-10-11T14:25:37.198Z,101754.41
2022-10-11T14:27:40.767Z,101839.44
2022-10-11T14:29:55.558Z,101853.03
2022-10-11T14:32:14.728Z,101907.84
2022-10-11T14:34:23.007Z,101954.34
2022-10-11T14:36:26.319Z,101812.38
2022-10-11T14:38:28.967Z,101970.38
2022-10-11T14:40:32.236Z,101966.75
2022-10-11T14:42:34.981Z,101976.72
2022-10-11T14:44:37.839Z,101944.63
2022-10-11T14:46:41.424Z,101939.16
2022-10-11T14:48:55.099Z,101861.09
2022-10-11T14:51:03.418Z,101969.34
2022-10-11T14:53:08.013Z,101839.38
2022-10-11T14:55:10.852Z,101965.56
2022-10-11T14:57:17.171Z,101752.94
2022-10-11T14:59:24.715Z,101899.03
2022-10-11T15:01:27.454Z,101956.81
2022-10-11T15:03:41.235Z,101954.47
2022-10-11T15:05:43.970Z,101974.50
2022-10-11T15:07:46.707Z,101842.03
2022-10-11T15:09:49.538Z,101711.50
2022-10-11T15:12:09.491Z,101835.16
2022-10-11T15:14:20.387Z,101748.41
2022-10-11T15:16:30.275Z,101893.53
2022-10-11T15:19:08.265Z,101851.94
2022-10-11T15:21:14.643Z,101969.44
2022-10-11T15:23:17.249Z,101968.06
2022-10-11T15:25:23.371Z,101844.59
2022-10-11T15:27:28.756Z,101927.00
2022-10-11T15:29:31.392Z,101983.41
2022-10-11T15:31:33.956Z,101958.56
2022-10-11T15:33:36.948Z,101825.50
2022-10-11T15:35:40.145Z,101966.63
2022-10-11T15:37:53.865Z,101978.03
2022-10-11T15:39:56.519Z,101973.53
2022-10-11T15:42:00.055Z,101968.84
2022-10-11T15:44:03.360Z,101934.06
2022-10-11T15:46:06.878Z,101738.00
2022-10-11T15:48:15.787Z,101984.94
2022-10-11T15:50:34.096Z,101985.28
2022-10-11T15:52:42.608Z,101940.31
2022-10-11T15:54:45.197Z,101974.28
2022-10-11T15:56:48.061Z,101970.34
2022-10-11T15:58:53.818Z,101973.53
2022-10-11T16:01:01.952Z,101992.88
2022-10-11T16:03:06.000Z,101982.09
2022-10-11T16:05:14.730Z,101995.56
2022-10-11T16:07:17.403Z,101983.56
2022-10-11T16:09:20.343Z,101999.28
2022-10-11T16:11:22.941Z,101998.78
2022-10-11T16:13:25.554Z,101994.84
2022-10-11T16:16:09.866Z,101850.41
2022-10-11T16:18:16.425Z,101998.59
2022-10-11T16:20:24.891Z,102005.38
2022-10-11T16:22:27.823Z,101864.22
2022-10-11T16:24:53.185Z,102009.25
2022-10-11T16:26:55.819Z,101897.16
2022-10-11T16:28:58.575Z,101942.22
2022-10-11T16:31:16.784Z,102000.22
2022-10-11T16:33:19.558Z,101992.25
2022-10-11T16:35:22.682Z,101902.03
2022-10-11T16:37:28.674Z,101876.06
2022-10-11T16:39:31.340Z,101937.75
2022-10-11T16:41:34.065Z,101907.66
2022-10-11T16:43:36.725Z,102026.53
2022-10-11T16:45:39.342Z,101799.16
2022-10-11T16:47:43.653Z,102024.19
2022-10-11T16:49:46.887Z,101950.72
2022-10-11T16:51:51.305Z,102000.84
2022-10-11T16:53:53.995Z,101983.91
2022-10-11T16:55:56.857Z,101910.78
2022-10-11T16:57:59.465Z,101989.41
2022-10-11T17:00:02.358Z,102026.03
2022-10-11T17:02:05.840Z,101910.09
2022-10-11T17:04:09.677Z,102014.78
2022-10-11T17:06:12.232Z,102043.91
2022-10-11T17:08:14.889Z,102009.78
2022-10-11T17:10:17.449Z,102018.69
2022-10-11T17:12:23.215Z,101942.28
2022-10-11T17:14:25.912Z,102006.19
2022-10-11T17:16:28.840Z,101793.16
2022-10-11T17:18:32.772Z,102031.72
2022-10-11T17:20:35.459Z,102029.91
2022-10-11T17:22:37.978Z,101909.16
2022-10-11T17:24:40.793Z,102054.81
2022-10-11T17:26:43.392Z,102016.38
2022-10-11T17:28:46.257Z,102037.63
2022-10-11T17:30:58.356Z,102058.69
2022-10-11T17:33:01.101Z,101919.50
2022-10-11T17:35:05.636Z,101790.56
2022-10-11T17:37:10.196Z,101942.16
2022-10-11T17:39:16.439Z,101958.13
2022-10-11T17:41:20.074Z,101776.13
2022-10-11T17:43:22.899Z,102052.22
2022-10-11T17:45:25.771Z,102040.69
2022-10-11T17:47:30.562Z,101749.81
2022-10-11T17:49:33.324Z,101822.78
2022-10-11T17:51:37.484Z,101788.59
2022-10-11T17:53:41.093Z,101811.03
2022-10-11T17:55:46.341Z,101961.53
2022-10-11T17:57:49.206Z,101808.19
2022-10-11T17:59:51.906Z,101814.41
2022-10-11T18:01:55.184Z,101951.41
2022-10-11T18:04:01.672Z,101945.31
2022-10-11T18:06:10.358Z,101772.59
2022-10-11T18:08:19.145Z,101792.97
2022-10-11T18:10:24.619Z,101913.53
2022-10-11T18:12:28.118Z,102060.47
2022-10-11T18:14:35.880Z,101780.81
2022-10-11T18:16:40.353Z,101949.75
2022-10-11T18:18:49.797Z,101874.84
2022-10-11T18:21:21.267Z,102038.38
2022-10-11T18:23:25.489Z,101822.41
2022-10-11T18:25:29.995Z,101798.16
2022-10-11T18:27:47.837Z,101836.13
2022-10-11T18:29:54.507Z,101802.19
2022-10-11T18:31:57.967Z,101913.22
2022-10-11T18:34:14.042Z,101800.91
2022-10-11T18:36:23.657Z,102062.41
2022-10-11T18:38:47.323Z,101842.75
2022-10-11T18:40:53.612Z,101804.69
2022-10-11T18:42:57.616Z,102061.16
2022-10-11T18:45:03.490Z,102043.91
2022-10-11T18:47:08.159Z,102066.56
2022-10-11T18:49:13.233Z,101938.94
2022-10-11T18:51:28.802Z,102061.06
2022-10-11T18:53:43.670Z,101779.53
2022-10-11T18:55:52.436Z,101769.44
2022-10-11T18:57:55.879Z,101809.28
2022-10-11T19:00:11.742Z,102046.84
2022-10-11T19:02:28.939Z,101797.16
2022-10-11T19:04:34.457Z,101860.72
2022-10-11T19:06:43.090Z,102055.16
2022-10-11T19:08:50.111Z,101975.97
2022-10-11T19:10:55.559Z,102054.34
2022-10-11T19:12:59.255Z,101906.84
2022-10-11T19:15:08.290Z,101777.28
2022-10-11T19:17:14.898Z,101798.72
2022-10-11T19:19:25.920Z,101786.13
2022-10-11T19:21:30.866Z,101795.25
2022-10-11T19:23:45.330Z,102029.91
2022-10-11T19:25:47.881Z,102051.19
2022-10-11T19:27:50.456Z,102013.25
2022-10-11T19:29:53.069Z,102035.34
2022-10-11T19:32:26.983Z,102007.34
2022-10-11T19:34:31.709Z,102055.50
2022-10-11T19:36:36.815Z,102043.16
2022-10-11T19:38:43.654Z,102061.50
2022-10-11T19:40:46.755Z,102032.88
2022-10-11T19:42:49.461Z,101939.63
2022-10-11T19:44:52.226Z,101904.22
2022-10-11T19:47:04.237Z,101978.56
2022-10-11T19:49:08.070Z,102052.94
2022-10-11T19:51:17.098Z,101836.28
2022-10-11T19:53:19.678Z,101862.22
2022-10-11T19:55:22.428Z,102012.53
2022-10-11T19:57:25.054Z,101921.06
2022-10-11T19:59:28.161Z,102015.25
2022-10-11T20:01:33.353Z,102074.00
2022-10-11T20:03:39.107Z,101891.59
2022-10-11T20:05:43.249Z,101959.03
2022-10-11T20:07:52.359Z,101908.72
2022-10-11T20:10:20.894Z,101916.94
2022-10-11T20:12:23.826Z,101795.97
2022-10-11T20:14:26.909Z,101844.34
2022-10-11T20:16:34.654Z,101953.72
2022-10-11T20:18:39.640Z,101791.97
2022-10-11T20:20:55.932Z,101767.75
2022-10-11T20:22:59.025Z,101802.06
2022-10-11T20:25:03.220Z,101812.78
2022-10-11T20:27:07.424Z,101937.75
2022-10-11T20:29:12.327Z,101823.34
2022-10-11T20:31:32.075Z,101803.44
2022-10-11T20:33:34.925Z,101937.19
2022-10-11T20:35:37.698Z,101953.53
2022-10-11T20:37:40.428Z,101797.06
2022-10-11T20:40:14.020Z,102028.56
2022-10-11T20:42:16.708Z,101962.13
2022-10-11T20:44:19.399Z,101923.00
2022-10-11T20:46:28.129Z,101963.47
2022-10-11T20:48:32.140Z,101808.97
2022-10-11T20:50:35.317Z,101985.47
2022-10-11T20:52:38.123Z,101970.16
2022-10-11T20:54:41.681Z,101949.53
2022-10-11T20:56:44.446Z,101912.22
2022-10-11T20:58:47.580Z,101914.94
2022-10-11T21:00:50.647Z,101966.50
2022-10-11T21:02:54.386Z,101844.56
2022-10-11T21:04:57.259Z,102060.03
2022-10-11T21:07:02.973Z,101822.47
2022-10-11T21:09:05.718Z,101945.03
2022-10-11T21:11:09.609Z,101821.16
2022-10-11T21:13:12.268Z,101980.75
2022-10-11T21:15:14.960Z,102062.19
2022-10-11T21:17:17.772Z,101819.25
2022-10-11T21:19:20.490Z,101939.63
2022-10-11T21:21:24.358Z,101837.78
2022-10-11T21:23:27.020Z,102062.44
2022-10-11T21:25:29.840Z,101957.84
2022-10-11T21:27:39.561Z,102069.53
2022-10-11T21:29:42.233Z,101920.63
2022-10-11T21:31:44.963Z,101822.47
2022-10-11T21:33:48.074Z,101987.97
2022-10-11T21:35:50.821Z,101816.34
2022-10-11T21:37:55.912Z,101937.75
2022-10-11T21:40:08.515Z,101917.00
2022-10-11T21:42:11.304Z,101798.88
2022-10-11T21:44:14.121Z,101835.28
2022-10-11T21:46:41.609Z,101818.41
2022-10-11T21:48:52.550Z,101803.19
2022-10-11T21:50:55.732Z,101897.88
2022-10-11T21:52:58.789Z,101809.03
2022-10-11T21:55:01.802Z,101978.94
2022-10-11T21:57:04.790Z,102041.53
2022-10-11T21:59:11.117Z,102045.16
2022-10-11T22:01:15.375Z,102087.75
2022-10-11T22:03:18.074Z,102055.53
2022-10-11T22:05:21.245Z,101998.75
2022-10-11T22:07:24.286Z,101924.78
2022-10-11T22:09:28.523Z,102092.31
2022-10-11T22:11:31.466Z,101957.16
2022-10-11T22:13:37.076Z,102076.63
2022-10-11T22:15:39.736Z,102085.03
2022-10-11T22:17:42.368Z,102093.84
2022-10-11T22:19:44.972Z,101982.03
2022-10-11T22:21:47.628Z,102047.66
2022-10-11T22:23:53.612Z,101878.13
2022-10-11T22:25:56.243Z,102043.28
2022-10-11T22:27:58.922Z,101962.56
2022-10-11T22:30:01.896Z,101869.56
2022-10-11T22:32:04.724Z,102046.19
2022-10-11T22:34:07.372Z,102061.16
2022-10-11T22:36:12.701Z,102086.81
2022-10-11T22:38:15.315Z,102091.31
2022-10-11T22:40:19.588Z,101858.31
2022-10-11T22:42:27.530Z,102078.34
2022-10-11T22:44:30.516Z,101938.00
2022-10-11T22:46:33.193Z,102090.03
2022-10-11T22:48:39.185Z,101830.38
2022-10-11T22:50:42.439Z,101997.13
2022-10-11T22:52:45.122Z,101973.00
2022-10-11T22:54:47.849Z,102012.88
2022-10-11T22:56:50.498Z,101828.06
2022-10-11T22:58:53.205Z,101820.19
2022-10-11T23:00:56.966Z,101812.38
2022-10-11T23:03:00.886Z,101900.88
2022-10-11T23:05:04.156Z,101921.41
2022-10-11T23:07:06.965Z,101995.81
2022-10-11T23:09:09.710Z,101800.78
2022-10-11T23:11:12.777Z,102055.19
2022-10-11T23:13:15.450Z,101776.00
2022-10-11T23:15:18.255Z,101829.63
2022-10-11T23:17:20.986Z,102085.50
2022-10-11T23:19:25.652Z,101838.41
2022-10-11T23:21:28.309Z,101997.34
2022-10-11T23:23:31.486Z,101823.22
2022-10-11T23:25:34.378Z,102018.03
2022-10-11T23:27:37.351Z,101975.31
2022-10-11T23:29:41.108Z,102073.53
2022-10-11T23:31:44.583Z,102071.91
2022-10-11T23:33:48.133Z,102101.50
2022-10-11T23:35:51.066Z,101977.03
2022-10-11T23:37:54.863Z,102077.19
2022-10-11T23:39:57.430Z,101963.28
2022-10-11T23:42:00.120Z,102068.06
2022-10-11T23:44:02.765Z,101808.44
2022-10-11T23:46:05.601Z,102031.00
2022-10-11T23:48:08.203Z,101831.78
2022-10-11T23:50:38.787Z,101987.03
2022-10-11T23:52:41.754Z,101803.56
2022-10-11T23:54:44.755Z,101821.06
2022-10-11T23:56:50.578Z,101939.66
2022-10-11T23:58:53.641Z,101992.00
